CheckWX is a tool to help pilots better visualize weather data.  It is not intended as a substitute for an official pre-flight weather briefing.

18:07:58 UTC

YWHA METAR
Whyalla Airport
Whyalla, Australia
Current

1 hour ago

YWHA 121700Z AUTO 23009KT 9999 // OVC048 13/06 Q1023
Observed
Nov-12 @ 17:00 UTC
Wind
  • 230° at 9 KTS
Visibility
10,000+ meters
Flight Rules
VFR
Cloud Levels
  • Overcast at 4,800' AGL
Temperature
13°C / 55°F
Dewpoint
C / 43°F
Humidity
63%
Altimeter
30.21" Hg
Pressure
1022.92 hPa
Previous

2 hours ago

YWHA 121600Z AUTO 22010KT 9999 // OVC047 14/06 Q1023
Observed
Nov-12 @ 16:00 UTC
Wind
  • 220° at 10 KTS
Visibility
10,000+ meters
Flight Rules
VFR
Cloud Levels
  • Overcast at 4,700' AGL
Temperature
14°C / 57°F
Dewpoint
C / 43°F
Humidity
59%
Altimeter
30.21" Hg
Pressure
1022.92 hPa
Previous

3 hours ago

YWHA 121500Z AUTO 21010G20KT 9999 // BKN043 OVC048 14/06 Q1024
Observed
Nov-12 @ 15:00 UTC
Wind
  • 210° at 10 KTS
  • Gusting to 20 KTS
Visibility
10,000+ meters
Flight Rules
VFR
Cloud Levels
  • Broken at 4,300' AGL
  • Overcast at 4,800' AGL
Temperature
14°C / 57°F
Dewpoint
C / 43°F
Humidity
59%
Altimeter
30.24" Hg
Pressure
1023.92 hPa